createdAt,value
2017-02-11T00:00:59.315Z,1022.9
2017-02-11T00:02:09.216Z,1022.9
2017-02-11T00:03:19.908Z,1022.87
2017-02-11T00:04:30.868Z,1022.87
2017-02-11T00:05:41.174Z,1022.87
2017-02-11T00:06:50.687Z,1022.9
2017-02-11T00:08:00.608Z,1022.97
2017-02-11T00:09:11.312Z,1022.96
2017-02-11T00:10:21.513Z,1022.96
2017-02-11T00:11:32.220Z,1022.94
2017-02-11T00:12:42.131Z,1022.91
2017-02-11T00:13:52.889Z,1022.9
2017-02-11T00:15:03.192Z,1022.93
2017-02-11T00:16:13.741Z,1022.93
2017-02-11T00:17:24.041Z,1022.97
2017-02-11T00:18:34.357Z,1022.96
2017-02-11T00:19:44.659Z,1022.99
2017-02-11T00:20:54.175Z,1023.04
2017-02-11T00:22:04.743Z,1023.01
2017-02-11T00:23:15.045Z,1023.04
2017-02-11T00:24:25.347Z,1022.96
2017-02-11T00:25:35.682Z,1023.02
2017-02-11T00:26:45.990Z,1022.98
2017-02-11T00:27:56.615Z,1022.94
2017-02-11T00:29:06.532Z,1022.93
2017-02-11T00:30:16.451Z,1022.98
2017-02-11T00:31:26.356Z,1022.96
2017-02-11T00:32:36.266Z,1022.99
2017-02-11T00:33:46.819Z,1023.01
2017-02-11T00:34:55.548Z,1022.99
2017-02-11T00:36:05.448Z,1022.99
2017-02-11T00:37:16.138Z,1022.92
2017-02-11T00:38:26.075Z,1022.98
2017-02-11T00:39:36.255Z,1022.94
2017-02-11T00:40:46.556Z,1022.95
2017-02-11T00:41:56.857Z,1022.96
2017-02-11T00:43:07.166Z,1022.96
2017-02-11T00:44:17.478Z,1022.97
2017-02-11T00:45:27.234Z,1022.96
2017-02-11T00:46:37.536Z,1022.91
2017-02-11T00:47:47.832Z,1022.94
2017-02-11T00:48:57.766Z,1022.9
2017-02-11T00:50:08.474Z,1022.93
2017-02-11T00:51:19.107Z,1022.9
2017-02-11T00:52:29.410Z,1022.88
2017-02-11T00:53:39.710Z,1022.94
2017-02-11T00:54:50.021Z,1022.9
2017-02-11T00:56:00.341Z,1022.93
2017-02-11T00:57:10.947Z,1022.9
2017-02-11T00:58:21.274Z,1022.91
2017-02-11T00:59:31.598Z,1022.89
2017-02-11T01:00:42.298Z,1022.88
2017-02-11T01:01:51.842Z,1022.92
2017-02-11T01:03:02.392Z,1022.83
2017-02-11T01:04:12.680Z,1022.82
2017-02-11T01:05:23.386Z,1022.84
2017-02-11T01:06:33.709Z,1022.86
2017-02-11T01:07:44.010Z,1022.84
2017-02-11T01:08:54.612Z,1022.91
2017-02-11T01:10:04.914Z,1022.89
2017-02-11T01:11:15.645Z,1022.88
2017-02-11T01:12:26.340Z,1022.86
2017-02-11T01:13:36.248Z,1022.81
2017-02-11T01:14:46.809Z,1022.82
2017-02-11T01:15:57.117Z,1022.78
2017-02-11T01:17:07.036Z,1022.77
2017-02-11T01:18:17.765Z,1022.81
2017-02-11T01:19:27.667Z,1022.78
2017-02-11T01:20:37.875Z,1022.77
2017-02-11T01:21:47.778Z,1022.76
2017-02-11T01:22:58.472Z,1022.78
2017-02-11T01:24:09.180Z,1022.8
2017-02-11T01:25:19.872Z,1022.79
2017-02-11T01:26:30.830Z,1022.78
2017-02-11T01:27:41.119Z,1022.77
2017-02-11T01:28:51.409Z,1022.77
2017-02-11T01:30:01.704Z,1022.73
2017-02-11T01:31:11.614Z,1022.72
2017-02-11T01:32:22.164Z,1022.72
2017-02-11T01:33:32.850Z,1022.7
2017-02-11T01:34:43.152Z,1022.72
2017-02-11T01:35:53.057Z,1022.68
2017-02-11T01:37:03.769Z,1022.65
2017-02-11T01:38:14.330Z,1022.64
2017-02-11T01:39:24.635Z,1022.65
2017-02-11T01:40:34.533Z,1022.57
2017-02-11T01:41:45.226Z,1022.59
2017-02-11T01:42:55.125Z,1022.54
2017-02-11T01:44:05.331Z,1022.54
2017-02-11T01:45:15.345Z,1022.47
2017-02-11T01:46:24.861Z,1022.48
2017-02-11T01:47:35.172Z,1022.52
2017-02-11T01:48:45.475Z,1022.49
2017-02-11T01:49:56.228Z,1022.46
2017-02-11T01:51:06.526Z,1022.46
2017-02-11T01:52:16.428Z,1022.5
2017-02-11T01:53:27.124Z,1022.5
2017-02-11T01:54:37.033Z,1022.53
2017-02-11T01:55:48.033Z,1022.52
2017-02-11T01:56:58.315Z,1022.49
2017-02-11T01:58:08.221Z,1022.51
2017-02-11T01:59:18.919Z,1022.57
2017-02-11T02:00:29.226Z,1022.54
2017-02-11T02:01:39.779Z,1022.52
2017-02-11T02:02:49.678Z,1022.53
2017-02-11T02:03:59.204Z,1022.54
2017-02-11T02:05:09.903Z,1022.53
2017-02-11T02:06:20.231Z,1022.49
2017-02-11T02:07:30.774Z,1022.52
2017-02-11T02:08:39.991Z,1022.59
2017-02-11T02:09:49.887Z,1022.55
2017-02-11T02:11:00.177Z,1022.5
2017-02-11T02:12:09.701Z,1022.54
2017-02-11T02:13:19.851Z,1022.63
2017-02-11T02:14:29.803Z,1022.58
2017-02-11T02:15:40.103Z,1022.6
2017-02-11T02:16:50.013Z,1022.6
2017-02-11T02:18:00.711Z,1022.61
2017-02-11T02:19:10.858Z,1022.61
2017-02-11T02:20:21.150Z,1022.61
2017-02-11T02:21:30.661Z,1022.64
2017-02-11T02:22:40.564Z,1022.63
2017-02-11T02:23:50.868Z,1022.65
2017-02-11T02:25:00.725Z,1022.6
2017-02-11T02:26:10.637Z,1022.6
2017-02-11T02:27:20.539Z,1022.54
2017-02-11T02:28:30.837Z,1022.55
2017-02-11T02:29:41.150Z,1022.57
2017-02-11T02:30:52.138Z,1022.53
2017-02-11T02:32:02.046Z,1022.52
2017-02-11T02:33:12.343Z,1022.49
2017-02-11T02:34:22.648Z,1022.54
2017-02-11T02:35:32.961Z,1022.6
2017-02-11T02:36:43.562Z,1022.53
2017-02-11T02:37:54.253Z,1022.49
2017-02-11T02:39:04.172Z,1022.56
2017-02-11T02:40:14.080Z,1022.54
2017-02-11T02:41:24.779Z,1022.5
2017-02-11T02:42:34.974Z,1022.54
2017-02-11T02:43:45.270Z,1022.55
2017-02-11T02:44:55.953Z,1022.55
2017-02-11T02:46:06.258Z,1022.52
2017-02-11T02:47:16.556Z,1022.57
2017-02-11T02:48:27.157Z,1022.59
2017-02-11T02:49:37.464Z,1022.57
2017-02-11T02:50:47.371Z,1022.57
2017-02-11T02:51:57.677Z,1022.55
2017-02-11T02:53:07.970Z,1022.58
2017-02-11T02:54:18.573Z,1022.54
2017-02-11T02:55:28.086Z,1022.54
2017-02-11T02:56:37.987Z,1022.57
2017-02-11T02:57:48.687Z,1022.56
2017-02-11T02:58:58.992Z,1022.53
2017-02-11T03:00:09.200Z,1022.57
2017-02-11T03:01:19.255Z,1022.54
2017-02-11T03:02:29.178Z,1022.55
2017-02-11T03:03:39.087Z,1022.61
2017-02-11T03:04:49.392Z,1022.62
2017-02-11T03:05:59.990Z,1022.61
2017-02-11T03:07:10.273Z,1022.63
2017-02-11T03:08:19.383Z,1022.6
2017-02-11T03:09:29.682Z,1022.66
2017-02-11T03:10:40.371Z,1022.61
2017-02-11T03:11:50.131Z,1022.6
2017-02-11T03:13:00.031Z,1022.62
2017-02-11T03:14:09.941Z,1022.6
2017-02-11T03:15:20.639Z,1022.61
2017-02-11T03:16:30.544Z,1022.62
2017-02-11T03:17:41.152Z,1022.68
2017-02-11T03:18:51.049Z,1022.67
2017-02-11T03:20:01.364Z,1022.69
2017-02-11T03:21:12.051Z,1022.69
2017-02-11T03:22:22.748Z,1022.65
2017-02-11T03:23:33.696Z,1022.67
2017-02-11T03:24:44.385Z,1022.68
2017-02-11T03:25:54.691Z,1022.64
2017-02-11T03:27:05.393Z,1022.66
2017-02-11T03:28:15.300Z,1022.67
2017-02-11T03:29:25.850Z,1022.63
2017-02-11T03:30:35.781Z,1022.65
2017-02-11T03:31:46.091Z,1022.67
2017-02-11T03:32:56.783Z,1022.65
2017-02-11T03:34:07.472Z,1022.66
2017-02-11T03:35:18.017Z,1022.7
2017-02-11T03:36:27.943Z,1022.69
2017-02-11T03:37:38.247Z,1022.69
2017-02-11T03:38:47.753Z,1022.69
2017-02-11T03:39:58.048Z,1022.73
2017-02-11T03:41:08.204Z,1022.71
2017-02-11T03:42:18.147Z,1022.74
2017-02-11T03:43:28.051Z,1022.73
2017-02-11T03:44:38.734Z,1022.7
2017-02-11T03:45:49.036Z,1022.71
2017-02-11T03:46:59.980Z,1022.67
2017-02-11T03:48:09.894Z,1022.6
2017-02-11T03:49:19.800Z,1022.62
2017-02-11T03:50:30.107Z,1022.65
2017-02-11T03:51:40.408Z,1022.59
2017-02-11T03:52:50.961Z,1022.61
2017-02-11T03:54:00.867Z,1022.64
2017-02-11T03:55:11.556Z,1022.62
2017-02-11T03:56:21.844Z,1022.61
2017-02-11T03:57:32.135Z,1022.56
2017-02-11T03:58:42.687Z,1022.58
2017-02-11T03:59:52.990Z,1022.61
2017-02-11T04:01:03.691Z,1022.65
2017-02-11T04:02:13.997Z,1022.6
2017-02-11T04:03:24.685Z,1022.65
2017-02-11T04:04:35.244Z,1022.6
2017-02-11T04:05:45.585Z,1022.64
2017-02-11T04:06:55.510Z,1022.65
2017-02-11T04:08:06.212Z,1022.65
2017-02-11T04:09:16.136Z,1022.63
2017-02-11T04:10:26.767Z,1022.59
2017-02-11T04:11:37.071Z,1022.59
2017-02-11T04:12:47.361Z,1022.63
2017-02-11T04:13:57.659Z,1022.56
2017-02-11T04:15:08.350Z,1022.6
2017-02-11T04:16:18.555Z,1022.57
2017-02-11T04:17:28.883Z,1022.56
2017-02-11T04:18:39.639Z,1022.57
2017-02-11T04:19:49.150Z,1022.59
2017-02-11T04:20:59.547Z,1022.61
2017-02-11T04:22:09.698Z,1022.6
2017-02-11T04:23:20.401Z,1022.57
2017-02-11T04:24:31.089Z,1022.58
2017-02-11T04:25:41.377Z,1022.57
2017-02-11T04:26:50.875Z,1022.6
2017-02-11T04:28:01.858Z,1022.63
2017-02-11T04:29:12.553Z,1022.57
2017-02-11T04:30:22.862Z,1022.61
2017-02-11T04:31:33.166Z,1022.61
2017-02-11T04:32:43.070Z,1022.6
2017-02-11T04:33:54.000Z,1022.6
2017-02-11T04:35:04.300Z,1022.58
2017-02-11T04:36:14.204Z,1022.57
2017-02-11T04:37:24.918Z,1022.58
2017-02-11T04:38:34.818Z,1022.57
2017-02-11T04:39:45.366Z,1022.58
2017-02-11T04:40:55.671Z,1022.61
2017-02-11T04:42:05.574Z,1022.57
2017-02-11T04:43:15.876Z,1022.52
2017-02-11T04:44:25.377Z,1022.54
2017-02-11T04:45:35.521Z,1022.54
2017-02-11T04:46:45.415Z,1022.57
2017-02-11T04:47:55.361Z,1022.56
2017-02-11T04:49:05.665Z,1022.61
2017-02-11T04:50:16.364Z,1022.6
2017-02-11T04:51:26.163Z,1022.61
2017-02-11T04:52:36.459Z,1022.59
2017-02-11T04:53:47.161Z,1022.59
2017-02-11T04:54:57.101Z,1022.56
2017-02-11T04:56:07.007Z,1022.59
2017-02-11T04:57:17.557Z,1022.58
2017-02-11T04:58:27.468Z,1022.58
2017-02-11T04:59:37.373Z,1022.55
2017-02-11T05:00:47.672Z,1022.54
2017-02-11T05:01:57.992Z,1022.57
2017-02-11T05:03:08.148Z,1022.58
2017-02-11T05:04:18.060Z,1022.54
2017-02-11T05:05:28.384Z,1022.55
2017-02-11T05:06:38.684Z,1022.61
2017-02-11T05:07:48.188Z,1022.56
2017-02-11T05:08:58.792Z,1022.59
2017-02-11T05:10:09.093Z,1022.58
2017-02-11T05:11:19.397Z,1022.57
2017-02-11T05:12:28.935Z,1022.54
2017-02-11T05:13:39.726Z,1022.53
2017-02-11T05:14:50.264Z,1022.52
2017-02-11T05:16:00.956Z,1022.5
2017-02-11T05:17:10.466Z,1022.47
2017-02-11T05:18:20.759Z,1022.5
2017-02-11T05:19:31.460Z,1022.51
2017-02-11T05:20:42.022Z,1022.49
2017-02-11T05:21:51.922Z,1022.52
2017-02-11T05:23:01.833Z,1022.49
2017-02-11T05:24:11.734Z,1022.51
2017-02-11T05:25:22.427Z,1022.48
2017-02-11T05:26:32.578Z,1022.48
2017-02-11T05:27:42.485Z,1022.49
2017-02-11T05:28:53.190Z,1022.48
2017-02-11T05:30:03.894Z,1022.44
2017-02-11T05:31:14.576Z,1022.48
2017-02-11T05:32:24.843Z,1022.48
2017-02-11T05:33:35.189Z,1022.48
2017-02-11T05:34:44.310Z,1022.56
2017-02-11T05:35:54.611Z,1022.53
2017-02-11T05:37:05.015Z,1022.53
2017-02-11T05:38:15.606Z,1022.58
2017-02-11T05:39:25.903Z,1022.59
2017-02-11T05:40:36.597Z,1022.61
2017-02-11T05:41:47.290Z,1022.61
2017-02-11T05:42:57.192Z,1022.63
2017-02-11T05:44:07.743Z,1022.65
2017-02-11T05:45:17.646Z,1022.59
2017-02-11T05:46:27.548Z,1022.64
2017-02-11T05:47:37.451Z,1022.59
2017-02-11T05:48:47.358Z,1022.6
2017-02-11T05:49:57.964Z,1022.66
2017-02-11T05:51:07.878Z,1022.65
2017-02-11T05:52:17.785Z,1022.65
2017-02-11T05:53:27.694Z,1022.64
2017-02-11T05:54:38.022Z,1022.66
2017-02-11T05:55:48.951Z,1022.61
2017-02-11T05:56:58.856Z,1022.63
2017-02-11T05:58:09.545Z,1022.68
2017-02-11T05:59:19.447Z,1022.63
2017-02-11T06:00:29.346Z,1022.64
2017-02-11T06:01:39.909Z,1022.67
2017-02-11T06:02:50.206Z,1022.67
2017-02-11T06:04:00.946Z,1022.67
2017-02-11T06:05:11.243Z,1022.69
2017-02-11T06:06:21.537Z,1022.62
2017-02-11T06:07:32.469Z,1022.65
2017-02-11T06:08:42.788Z,1022.65
2017-02-11T06:09:53.474Z,1022.65
2017-02-11T06:11:03.486Z,1022.69
2017-02-11T06:12:13.010Z,1022.72
2017-02-11T06:13:23.554Z,1022.73
2017-02-11T06:14:33.858Z,1022.71
2017-02-11T06:15:44.162Z,1022.75
2017-02-11T06:16:54.464Z,1022.77
2017-02-11T06:18:04.786Z,1022.77
2017-02-11T06:19:15.739Z,1022.79
2017-02-11T06:20:26.457Z,1022.8
2017-02-11T06:21:36.764Z,1022.8
2017-02-11T06:22:47.464Z,1022.82
2017-02-11T06:23:56.977Z,1022.8
2017-02-11T06:25:07.127Z,1022.83
2017-02-11T06:26:17.419Z,1022.88
2017-02-11T06:27:27.728Z,1022.86
2017-02-11T06:28:38.146Z,1022.84
2017-02-11T06:29:48.051Z,1022.82
2017-02-11T06:30:58.606Z,1022.83
2017-02-11T06:32:09.309Z,1022.83
2017-02-11T06:33:19.208Z,1022.83
2017-02-11T06:34:29.913Z,1022.84
2017-02-11T06:35:40.209Z,1022.85
2017-02-11T06:36:50.020Z,1022.82
2017-02-11T06:38:00.354Z,1022.91
2017-02-11T06:39:09.865Z,1022.89
2017-02-11T06:40:20.162Z,1022.89
2017-02-11T06:41:30.466Z,1022.88
2017-02-11T06:42:40.620Z,1022.88
2017-02-11T06:43:50.528Z,1022.94
2017-02-11T06:45:01.229Z,1022.96
2017-02-11T06:46:11.134Z,1022.97
2017-02-11T06:47:21.529Z,1022.98
2017-02-11T06:48:31.301Z,1022.94
2017-02-11T06:49:41.999Z,1022.98
2017-02-11T06:50:51.912Z,1022.94
2017-02-11T06:52:01.830Z,1022.99
2017-02-11T06:53:12.130Z,1022.96
2017-02-11T06:54:22.683Z,1022.98
2017-02-11T06:55:33.403Z,1022.99
2017-02-11T06:56:42.913Z,1023
2017-02-11T06:57:52.817Z,1022.98
2017-02-11T06:59:03.508Z,1022.95
2017-02-11T07:00:13.266Z,1022.95
2017-02-11T07:01:23.616Z,1022.97
2017-02-11T07:02:33.546Z,1022.97
2017-02-11T07:03:43.845Z,1022.97
2017-02-11T07:04:53.739Z,1023.02
2017-02-11T07:06:03.547Z,1023.01
2017-02-11T07:07:13.838Z,1023
2017-02-11T07:08:24.528Z,1022.99
2017-02-11T07:09:35.025Z,1022.99
2017-02-11T07:10:45.713Z,1023.01
2017-02-11T07:11:55.917Z,1023.08
2017-02-11T07:13:05.819Z,1023.09
2017-02-11T07:14:15.720Z,1023.13
2017-02-11T07:15:26.019Z,1023.15
2017-02-11T07:16:35.925Z,1023.2
2017-02-11T07:17:46.471Z,1023.18
2017-02-11T07:18:56.378Z,1023.2
2017-02-11T07:20:06.287Z,1023.18
2017-02-11T07:21:16.978Z,1023.17
2017-02-11T07:22:27.663Z,1023.21
2017-02-11T07:23:37.809Z,1023.15
2017-02-11T07:24:48.510Z,1023.21
2017-02-11T07:25:58.410Z,1023.15
2017-02-11T07:27:07.917Z,1023.23
2017-02-11T07:28:17.829Z,1023.29
2017-02-11T07:29:28.765Z,1023.32
2017-02-11T07:30:39.071Z,1023.22
2017-02-11T07:31:48.590Z,1023.25
2017-02-11T07:32:58.897Z,1023.28
2017-02-11T07:34:09.191Z,1023.33
2017-02-11T07:35:19.412Z,1023.32
2017-02-11T07:36:28.537Z,1023.35
2017-02-11T07:37:38.441Z,1023.37
2017-02-11T07:38:48.356Z,1023.31
2017-02-11T07:39:59.056Z,1023.32
2017-02-11T07:41:10.157Z,1023.36
2017-02-11T07:42:20.852Z,1023.34
2017-02-11T07:43:30.366Z,1023.41
2017-02-11T07:44:41.070Z,1023.38
2017-02-11T07:45:51.379Z,1023.42
2017-02-11T07:47:01.938Z,1023.42
2017-02-11T07:48:12.249Z,1023.39
2017-02-11T07:49:22.548Z,1023.42
2017-02-11T07:50:32.862Z,1023.4
2017-02-11T07:51:42.759Z,1023.39
2017-02-11T07:52:52.925Z,1023.4
2017-02-11T07:54:02.833Z,1023.38
2017-02-11T07:55:13.143Z,1023.38
2017-02-11T07:56:23.444Z,1023.36
2017-02-11T07:57:34.304Z,1023.38
2017-02-11T07:58:45.254Z,1023.38
2017-02-11T07:59:55.160Z,1023.4
2017-02-11T08:01:05.066Z,1023.32
2017-02-11T08:02:14.980Z,1023.32
2017-02-11T08:03:25.287Z,1023.33
2017-02-11T08:04:36.276Z,1023.39
2017-02-11T08:05:46.976Z,1023.34
2017-02-11T08:06:56.880Z,1023.36
2017-02-11T08:08:07.172Z,1023.39
2017-02-11T08:09:17.863Z,1023.34
2017-02-11T08:10:28.425Z,1023.3
2017-02-11T08:11:38.730Z,1023.33
2017-02-11T08:12:48.637Z,1023.35
2017-02-11T08:13:59.321Z,1023.31
2017-02-11T08:15:09.612Z,1023.29
2017-02-11T08:16:19.826Z,1023.29
2017-02-11T08:17:29.335Z,1023.31
2017-02-11T08:18:39.638Z,1023.31
2017-02-11T08:19:49.951Z,1023.38
2017-02-11T08:20:59.866Z,1023.3
2017-02-11T08:22:10.815Z,1023.36
2017-02-11T08:23:21.146Z,1023.4
2017-02-11T08:24:31.881Z,1023.36
2017-02-11T08:25:42.426Z,1023.3
2017-02-11T08:26:53.117Z,1023.3
2017-02-11T08:28:04.126Z,1023.3
2017-02-11T08:29:13.624Z,1023.31
2017-02-11T08:30:23.940Z,1023.26
2017-02-11T08:31:34.240Z,1023.33
2017-02-11T08:32:44.186Z,1023.34
2017-02-11T08:33:54.755Z,1023.28
2017-02-11T08:35:05.050Z,1023.25
2017-02-11T08:36:14.570Z,1023.26
2017-02-11T08:37:24.467Z,1023.3
2017-02-11T08:38:34.771Z,1023.27
2017-02-11T08:39:45.718Z,1023.29
2017-02-11T08:40:56.431Z,1023.29
2017-02-11T08:42:07.147Z,1023.28
2017-02-11T08:43:17.847Z,1023.31
2017-02-11T08:44:27.773Z,1023.28
2017-02-11T08:45:38.788Z,1023.25
2017-02-11T08:46:49.495Z,1023.25
2017-02-11T08:47:59.422Z,1023.27
2017-02-11T08:49:09.718Z,1023.24
2017-02-11T08:50:20.429Z,1023.25
2017-02-11T08:51:30.993Z,1023.26
2017-02-11T08:52:40.916Z,1023.24
2017-02-11T08:53:51.615Z,1023.17
2017-02-11T08:55:01.984Z,1023.2
2017-02-11T08:56:12.283Z,1023.23
2017-02-11T08:57:22.922Z,1023.29
2017-02-11T08:58:33.613Z,1023.26
2017-02-11T08:59:43.136Z,1023.31
2017-02-11T09:00:53.449Z,1023.31
2017-02-11T09:02:03.760Z,1023.3
2017-02-11T09:03:14.756Z,1023.31
2017-02-11T09:04:25.483Z,1023.33
2017-02-11T09:05:35.408Z,1023.32
2017-02-11T09:06:46.109Z,1023.37
2017-02-11T09:07:56.790Z,1023.34
2017-02-11T09:09:06.960Z,1023.32
2017-02-11T09:10:17.660Z,1023.33
2017-02-11T09:11:27.984Z,1023.34
2017-02-11T09:12:38.301Z,1023.32
2017-02-11T09:13:48.206Z,1023.32
2017-02-11T09:14:58.382Z,1023.33
2017-02-11T09:16:09.087Z,1023.31
2017-02-11T09:17:19.386Z,1023.35
2017-02-11T09:18:29.551Z,1023.31
2017-02-11T09:19:39.476Z,1023.37
2017-02-11T09:20:50.455Z,1023.39
2017-02-11T09:22:00.784Z,1023.42
2017-02-11T09:23:11.473Z,1023.37
2017-02-11T09:24:21.383Z,1023.41
2017-02-11T09:25:30.910Z,1023.37
2017-02-11T09:26:41.841Z,1023.36
2017-02-11T09:27:52.169Z,1023.36
2017-02-11T09:29:02.483Z,1023.38
2017-02-11T09:30:12.785Z,1023.39
2017-02-11T09:31:23.088Z,1023.32
2017-02-11T09:32:32.954Z,1023.39
2017-02-11T09:33:42.866Z,1023.39
2017-02-11T09:34:53.185Z,1023.33
2017-02-11T09:36:03.511Z,1023.39
2017-02-11T09:37:14.194Z,1023.41
2017-02-11T09:38:24.745Z,1023.37
2017-02-11T09:39:35.449Z,1023.36
2017-02-11T09:40:45.372Z,1023.37
2017-02-11T09:41:55.681Z,1023.4
2017-02-11T09:43:05.600Z,1023.4
2017-02-11T09:44:16.166Z,1023.42
2017-02-11T09:45:26.464Z,1023.47
2017-02-11T09:46:36.765Z,1023.5
2017-02-11T09:47:47.069Z,1023.46
2017-02-11T09:48:57.384Z,1023.47
2017-02-11T09:50:07.943Z,1023.47
2017-02-11T09:51:18.236Z,1023.52
2017-02-11T09:52:28.173Z,1023.48
2017-02-11T09:53:38.084Z,1023.51
2017-02-11T09:54:48.388Z,1023.52
2017-02-11T09:55:58.542Z,1023.52
2017-02-11T09:57:08.477Z,1023.52
2017-02-11T09:58:17.984Z,1023.49
2017-02-11T09:59:54.292Z,1023.46
2017-02-11T10:01:04.532Z,1023.54
2017-02-11T10:02:14.842Z,1023.53
2017-02-11T10:03:25.144Z,1023.49
2017-02-11T10:04:35.444Z,1023.49
2017-02-11T10:05:45.379Z,1023.52
2017-02-11T10:06:55.926Z,1023.5
2017-02-11T10:08:06.240Z,1023.45
2017-02-11T10:09:16.929Z,1023.45
2017-02-11T10:10:27.242Z,1023.48
2017-02-11T10:11:37.563Z,1023.43
2017-02-11T10:12:47.343Z,1023.45
2017-02-11T10:13:57.286Z,1023.49
2017-02-11T10:15:07.606Z,1023.47
2017-02-11T10:16:17.901Z,1023.46
2017-02-11T10:17:27.826Z,1023.44
2017-02-11T10:18:38.374Z,1023.45
2017-02-11T10:19:48.275Z,1023.44
2017-02-11T10:20:58.195Z,1023.46
2017-02-11T10:22:08.896Z,1023.48
2017-02-11T10:23:18.829Z,1023.46
2017-02-11T10:24:28.979Z,1023.45
2017-02-11T10:25:39.303Z,1023.4
2017-02-11T10:26:49.207Z,1023.35
2017-02-11T10:27:59.531Z,1023.3
2017-02-11T10:29:09.452Z,1023.36
2017-02-11T10:30:19.607Z,1023.3
2017-02-11T10:31:29.911Z,1023.29
2017-02-11T10:32:40.218Z,1023.31
2017-02-11T10:33:50.119Z,1023.3
2017-02-11T10:35:00.029Z,1023.25
2017-02-11T10:36:11.021Z,1023.31
2017-02-11T10:37:20.936Z,1023.27
2017-02-11T10:38:30.869Z,1023.25
2017-02-11T10:39:41.200Z,1023.27
2017-02-11T10:40:51.103Z,1023.26
2017-02-11T10:42:01.704Z,1023.24
2017-02-11T10:43:11.620Z,1023.31
2017-02-11T10:44:22.327Z,1023.31
2017-02-11T10:45:32.644Z,1023.33
2017-02-11T10:46:43.498Z,1023.33
2017-02-11T10:47:54.054Z,1023.3
2017-02-11T10:49:04.772Z,1023.31
2017-02-11T10:50:15.079Z,1023.29
2017-02-11T10:51:24.993Z,1023.25
2017-02-11T10:52:34.889Z,1023.25
2017-02-11T10:53:45.452Z,1023.25
2017-02-11T10:54:55.751Z,1023.24
2017-02-11T10:56:05.654Z,1023.24
2017-02-11T10:57:15.959Z,1023.26
2017-02-11T10:58:26.275Z,1023.2
2017-02-11T10:59:36.835Z,1023.21
2017-02-11T11:00:47.136Z,1023.2
2017-02-11T11:01:57.059Z,1023.22
2017-02-11T11:03:07.775Z,1023.2
2017-02-11T11:04:18.461Z,1023.19
2017-02-11T11:05:29.025Z,1023.17
2017-02-11T11:06:39.345Z,1023.14
2017-02-11T11:07:49.260Z,1023.14
2017-02-11T11:09:00.002Z,1023.18
2017-02-11T11:10:09.910Z,1023.14
2017-02-11T11:11:20.516Z,1023.1
2017-02-11T11:12:30.442Z,1023.12
2017-02-11T11:13:40.732Z,1023.05
2017-02-11T11:14:51.051Z,1023.07
2017-02-11T11:16:00.955Z,1023
2017-02-11T11:17:11.548Z,1022.97
2017-02-11T11:18:21.050Z,1023.03
2017-02-11T11:19:31.332Z,1023.01
2017-02-11T11:20:41.251Z,1023.03
2017-02-11T11:21:51.170Z,1023.01
2017-02-11T11:23:01.768Z,1022.99
2017-02-11T11:24:11.662Z,1022.98
2017-02-11T11:25:21.568Z,1022.99
2017-02-11T11:26:31.081Z,1022.96
2017-02-11T11:27:41.377Z,1022.98
2017-02-11T11:28:51.977Z,1022.96
2017-02-11T11:30:01.871Z,1023
2017-02-11T11:31:12.161Z,1022.99
2017-02-11T11:32:22.060Z,1023
2017-02-11T11:33:31.582Z,1022.97
2017-02-11T11:34:41.718Z,1023.02
2017-02-11T11:35:51.620Z,1022.96
2017-02-11T11:37:01.910Z,1022.97
2017-02-11T11:38:12.590Z,1022.95
2017-02-11T11:39:23.272Z,1022.97
2017-02-11T11:40:33.855Z,1022.95
2017-02-11T11:41:44.156Z,1022.96
2017-02-11T11:42:54.060Z,1022.93
2017-02-11T11:44:04.350Z,1022.93
2017-02-11T11:45:14.633Z,1022.95
2017-02-11T11:46:24.795Z,1022.97
2017-02-11T11:47:34.705Z,1022.93
2017-02-11T11:48:44.999Z,1022.89
2017-02-11T11:49:55.292Z,1022.91
2017-02-11T11:51:05.759Z,1022.89
2017-02-11T11:52:16.337Z,1022.91
2017-02-11T11:53:26.654Z,1022.92
2017-02-11T11:54:36.545Z,1022.92
2017-02-11T11:55:46.441Z,1022.87
2017-02-11T11:56:56.354Z,1022.9
2017-02-11T11:58:06.912Z,1022.91
2017-02-11T11:59:17.193Z,1022.88
2017-02-11T12:00:27.871Z,1022.89
2017-02-11T12:01:38.193Z,1022.89
2017-02-11T12:02:47.703Z,1022.87
2017-02-11T12:03:58.645Z,1022.84
2017-02-11T12:05:09.333Z,1022.87
2017-02-11T12:06:19.640Z,1022.85
2017-02-11T12:07:29.576Z,1022.88
2017-02-11T12:08:40.275Z,1022.89
2017-02-11T12:09:51.234Z,1022.88
2017-02-11T12:11:01.156Z,1022.91
2017-02-11T12:12:11.091Z,1022.88
2017-02-11T12:13:21.020Z,1022.89
2017-02-11T12:14:31.750Z,1022.85
2017-02-11T12:15:42.301Z,1022.86
2017-02-11T12:16:52.635Z,1022.84
2017-02-11T12:18:02.563Z,1022.82
2017-02-11T12:19:12.485Z,1022.85
2017-02-11T12:20:22.791Z,1022.82
2017-02-11T12:21:33.751Z,1022.84
2017-02-11T12:22:43.692Z,1022.81
2017-02-11T12:23:54.010Z,1022.8
2017-02-11T12:25:04.334Z,1022.79
2017-02-11T12:26:13.860Z,1022.85
2017-02-11T12:27:24.442Z,1022.85
2017-02-11T12:28:34.753Z,1022.82
2017-02-11T12:29:45.470Z,1022.82
2017-02-11T12:30:56.183Z,1022.83
2017-02-11T12:32:05.699Z,1022.81
2017-02-11T12:33:16.036Z,1022.81
2017-02-11T12:34:26.366Z,1022.81
2017-02-11T12:35:36.693Z,1022.79
2017-02-11T12:36:47.029Z,1022.81
2017-02-11T12:37:57.869Z,1022.77
2017-02-11T12:39:08.425Z,1022.8
2017-02-11T12:40:17.962Z,1022.76
2017-02-11T12:41:28.292Z,1022.78
2017-02-11T12:42:38.608Z,1022.8
2017-02-11T12:43:49.351Z,1022.79
2017-02-11T12:44:59.965Z,1022.75
2017-02-11T12:46:10.707Z,1022.76
2017-02-11T12:47:21.042Z,1022.75
2017-02-11T12:48:31.750Z,1022.69
2017-02-11T12:49:41.671Z,1022.76
2017-02-11T12:50:51.889Z,1022.75
2017-02-11T12:52:02.212Z,1022.69
2017-02-11T12:53:12.921Z,1022.67
2017-02-11T12:54:23.235Z,1022.66
2017-02-11T12:55:33.965Z,1022.68
2017-02-11T12:56:44.990Z,1022.64
2017-02-11T12:57:54.900Z,1022.66
2017-02-11T12:59:04.826Z,1022.68
2017-02-11T13:00:15.140Z,1022.72
2017-02-11T13:01:26.420Z,1022.69
2017-02-11T13:02:37.409Z,1022.67
2017-02-11T13:03:47.731Z,1022.7
2017-02-11T13:04:58.099Z,1022.71
2017-02-11T13:06:08.435Z,1022.69
2017-02-11T13:07:18.342Z,1022.72
2017-02-11T13:08:27.708Z,1022.72
2017-02-11T13:09:38.426Z,1022.74
2017-02-11T13:10:48.334Z,1022.72
2017-02-11T13:11:58.265Z,1022.78
2017-02-11T13:13:08.570Z,1022.75
2017-02-11T13:14:18.787Z,1022.76
2017-02-11T13:15:27.913Z,1022.74
2017-02-11T13:16:38.218Z,1022.76
2017-02-11T13:17:48.148Z,1022.77
2017-02-11T13:18:58.062Z,1022.8
2017-02-11T13:20:09.021Z,1022.78
2017-02-11T13:21:19.339Z,1022.82
2017-02-11T13:22:29.665Z,1022.75
2017-02-11T13:23:40.382Z,1022.78
2017-02-11T13:24:50.710Z,1022.78
2017-02-11T13:26:01.665Z,1022.76
2017-02-11T13:27:12.378Z,1022.8
2017-02-11T13:28:22.310Z,1022.82
2017-02-11T13:29:32.624Z,1022.83
2017-02-11T13:30:42.941Z,1022.81
2017-02-11T13:31:53.969Z,1022.81
2017-02-11T13:33:04.292Z,1022.77
2017-02-11T13:34:14.597Z,1022.77
2017-02-11T13:35:24.128Z,1022.79
2017-02-11T13:36:34.875Z,1022.75
2017-02-11T13:37:45.890Z,1022.78
2017-02-11T13:38:56.622Z,1022.79
2017-02-11T13:40:06.951Z,1022.82
2017-02-11T13:41:17.271Z,1022.77
2017-02-11T13:42:27.620Z,1022.75
2017-02-11T13:43:38.255Z,1022.81
2017-02-11T13:44:48.174Z,1022.83
2017-02-11T13:45:58.496Z,1022.8
2017-02-11T13:47:08.827Z,1022.79
2017-02-11T13:48:19.150Z,1022.78
2017-02-11T13:49:29.742Z,1022.75
2017-02-11T13:50:40.104Z,1022.71
2017-02-11T13:51:50.456Z,1022.76
2017-02-11T13:53:00.786Z,1022.71
2017-02-11T13:54:11.116Z,1022.74
2017-02-11T13:55:21.285Z,1022.71
2017-02-11T13:56:31.206Z,1022.72
2017-02-11T13:57:41.137Z,1022.71
2017-02-11T13:58:50.653Z,1022.7
2017-02-11T14:00:01.342Z,1022.74
2017-02-11T14:01:12.302Z,1022.73
2017-02-11T14:02:22.603Z,1022.74
2017-02-11T14:03:32.910Z,1022.71
2017-02-11T14:04:43.204Z,1022.78
2017-02-11T14:05:53.501Z,1022.78
2017-02-11T14:07:03.724Z,1022.77
2017-02-11T14:08:13.324Z,1022.76
2017-02-11T14:09:24.039Z,1022.78
2017-02-11T14:10:34.775Z,1022.77
2017-02-11T14:11:45.397Z,1022.74
2017-02-11T14:12:56.407Z,1022.77
2017-02-11T14:14:06.737Z,1022.78